M I D A S
Marine Information and Data Acquisition System
Tripno 1478 of the Zeeleeuw from 2008-02-07 07:33:22 to 2008-02-07 17:20:09
Back to CruiseResearch ActivitiesStationsMapUnderway DataData graphs

EquipmentUnitsComments
TimeDGPSUTC
LatitudeDGPSDM.mWGS84
LongitudeDGPSDM.mWGS84
SpeedMeteo Stationm/sRelative wind speed
DirectionMeteo StationdegRelative wind direction
TemperatureMeteo Stationdeg CelciusAir temperature
PressureMeteo StationPaAtmospheric pressure
HumidityMeteo Station%Relative humidity
Missing or incorrect values are displayed as -999
Metereological data collected by the RV Zeeleeuw from 2008-02-07 07:30:23 to 2008-02-07 17:30:04
Time Latitude Longitude Speed Direction Temperature Pressure Humidity
2008-02-07 07:31 51°13.672 2°55.911 -999 -999 -999 -999 -999
2008-02-07 07:32 51°13.679 2°55.873 -999 -999 -999 -999 -999
2008-02-07 07:33 51°13.711 2°55.787 -999 -999 -999 -999 -999
2008-02-07 07:34 51°13.764 2°55.694 -999 -999 -999 -999 -999
2008-02-07 07:35 51°13.841 2°55.637 -999 -999 -999 -999 -999
2008-02-07 07:36 51°13.916 2°55.652 -999 -999 -999 -999 -999
2008-02-07 07:37 51°13.939 2°55.65 -999 -999 -999 -999 -999
2008-02-07 07:38 51°13.98 2°55.571 3.1 50 3.6 -999 68
2008-02-07 07:39 51°14.073 2°55.469 0.6 55 3.6 103560 85
2008-02-07 07:40 51°14.188 2°55.353 1.9 307 3.7 103550 85
2008-02-07 07:41 51°14.298 2°55.187 4.4 307 3.8 103550 85
2008-02-07 07:42 51°14.399 2°54.968 7.6 302 3.9 103540 84
2008-02-07 07:43 51°14.514 2°54.721 7.1 306 4 103530 84
2008-02-07 07:44 51°14.627 2°54.436 6.7 286 4.1 103520 84
2008-02-07 07:45 51°14.739 2°54.146 6.4 303 4.2 103520 84
2008-02-07 07:46 51°14.845 2°53.863 9.6 306 4.3 103530 83
2008-02-07 07:47 51°14.954 2°53.57 7 303 4.4 103520 84
2008-02-07 07:48 51°15.063 2°53.279 9.7 309 4.6 103520 84
2008-02-07 07:49 51°15.17 2°52.991 9.3 306 4.6 103520 84
2008-02-07 07:50 51°15.283 2°52.695 7.4 309 4.7 103530 83
2008-02-07 07:51 51°15.391 2°52.391 10.5 309 4.7 103530 83
2008-02-07 07:52 51°15.451 2°52.058 9.9 305 4.7 103510 83
2008-02-07 07:53 51°15.483 2°51.706 10.4 304 4.7 103510 83
2008-02-07 07:54 51°15.471 2°51.346 10.5 304 4.7 103490 83
2008-02-07 07:55 51°15.45 2°50.986 10.9 281 4.7 103500 83
2008-02-07 07:56 51°15.435 2°50.624 11.1 286 4.7 103500 83
2008-02-07 07:57 51°15.42 2°50.262 12.7 282 4.7 103510 84
2008-02-07 07:58 51°15.402 2°49.901 8.8 281 4.7 103500 84
2008-02-07 07:59 51°15.387 2°49.536 9 281 4.7 103500 85
2008-02-07 08:00 51°15.371 2°49.184 11.6 281 4.7 103490 85
2008-02-07 08:01 51°15.359 2°48.821 10.7 281 4.7 103490 85
2008-02-07 08:02 51°15.344 2°48.472 9.6 280 4.8 103500 85
2008-02-07 08:03 51°15.328 2°48.124 12 306 4.9 103500 85
2008-02-07 08:04 51°15.311 2°47.778 12.6 279 4.9 103500 85
2008-02-07 08:05 51°15.295 2°47.424 12.3 285 4.9 103500 84
2008-02-07 08:06 51°15.282 2°47.078 10.4 284 4.9 103510 85
2008-02-07 08:07 51°15.269 2°46.723 11.6 280 4.9 103500 85
2008-02-07 08:08 51°15.258 2°46.359 12.7 283 5 103500 85
2008-02-07 08:09 51°15.248 2°45.998 11.7 281 5 103500 85
2008-02-07 08:10 51°15.235 2°45.637 14 280 5.1 103510 85
2008-02-07 08:11 51°15.222 2°45.282 10 283 5.1 103510 85
2008-02-07 08:12 51°15.209 2°44.914 13.4 282 5.1 103500 85
2008-02-07 08:13 51°15.196 2°44.557 10.7 285 5.1 103570 85
2008-02-07 08:14 51°15.18 2°44.194 11 307 5.1 103490 84
2008-02-07 08:15 51°15.164 2°43.836 13.1 282 5.1 103500 84
2008-02-07 08:16 51°15.147 2°43.48 9.4 281 5.1 103490 85
2008-02-07 08:17 51°15.169 2°43.132 13.5 306 5.2 103510 86
2008-02-07 08:18 51°15.219 2°42.792 11.7 282 5.2 103500 85
2008-02-07 08:19 51°15.267 2°42.445 9.6 282 5.3 103500 86
2008-02-07 08:20 51°15.31 2°42.113 13.1 282 5.3 103490 86
2008-02-07 08:21 51°15.369 2°41.778 10 286 5.4 103490 86
2008-02-07 08:22 51°15.476 2°41.493 8.6 280 5.4 103500 86
2008-02-07 08:23 51°15.597 2°41.218 10 284 5.5 103490 85
2008-02-07 08:24 51°15.717 2°40.933 7.9 278 5.6 103490 86
2008-02-07 08:25 51°15.838 2°40.656 11.6 282 5.7 103490 86
2008-02-07 08:26 51°15.954 2°40.377 11.3 307 5.8 103550 86
2008-02-07 08:27 51°16.069 2°40.088 11.3 281 5.8 103480 86
2008-02-07 08:28 51°16.187 2°39.794 12.2 282 5.9 103480 85
2008-02-07 08:29 51°16.309 2°39.521 11.6 282 5.9 103480 84
2008-02-07 08:30 51°16.436 2°39.245 10.7 304 6 103480 84
2008-02-07 08:31 51°16.562 2°38.97 12.4 284 6 103480 84
2008-02-07 08:32 51°16.685 2°38.684 10 284 6.1 103480 84
2008-02-07 08:33 51°16.803 2°38.408 9.3 307 6.2 103480 84
2008-02-07 08:34 51°16.935 2°38.119 8.1 286 6.2 103480 84
2008-02-07 08:35 51°17.062 2°37.828 10.1 281 6.2 103470 84
2008-02-07 08:36 51°17.184 2°37.546 11.5 309 6.2 103470 83
2008-02-07 08:37 51°17.31 2°37.256 9.6 279 6.2 103470 83
2008-02-07 08:38 51°17.43 2°36.969 13.3 283 6.2 103460 83
2008-02-07 08:39 51°17.55 2°36.686 8.5 302 6.2 103470 83
2008-02-07 08:40 51°17.674 2°36.398 12.4 305 6.2 103470 83
2008-02-07 08:41 51°17.794 2°36.121 8.9 304 6.2 103480 83
2008-02-07 08:42 51°17.92 2°35.839 9 280 6.2 103470 83
2008-02-07 08:43 51°18.066 2°35.692 4.6 279 6.2 103510 83
2008-02-07 08:44 51°18.217 2°35.639 3.1 52 6.2 103520 83
2008-02-07 08:45 51°18.342 2°35.751 5.6 30 6.3 103510 84
2008-02-07 08:46 51°18.456 2°35.904 6.3 30 6.3 103510 84
2008-02-07 08:47 51°18.551 2°36.072 5.7 36 6.3 103520 83
2008-02-07 08:48 51°18.62 2°36.179 6.7 43 6.3 103520 83
2008-02-07 08:49 51°18.663 2°36.235 8.3 37 6.2 103510 82
2008-02-07 08:50 51°18.675 2°36.274 9 35 6.3 103500 83
2008-02-07 08:51 51°18.675 2°36.279 9.2 32 6.3 103500 83
2008-02-07 08:52 51°18.688 2°36.302 9.3 75 6.3 103500 83
2008-02-07 08:53 51°18.698 2°36.298 6.2 50 6.2 103520 82
2008-02-07 08:54 51°18.706 2°36.286 5.4 75 6.4 103520 84
2008-02-07 08:55 51°18.713 2°36.271 6.1 75 6.6 103530 84
2008-02-07 08:56 51°18.723 2°36.251 10.4 79 6.5 103540 81
2008-02-07 08:57 51°13.643 2°55.871 -999 -999 -999 -999 -999
2008-02-07 08:57 51°18.734 2°36.215 10 82 6.3 103520 82
2008-02-07 08:58 51°18.741 2°36.183 9.3 81 6.3 103520 83
2008-02-07 08:59 51°18.745 2°36.149 8.4 280 6.4 103520 84
2008-02-07 09:00 51°18.747 2°36.115 8.9 287 6.3 103530 84
2008-02-07 09:01 51°18.745 2°36.087 5.7 281 6.3 103520 84
2008-02-07 09:02 51°18.742 2°36.062 6.4 282 6.4 103530 85
2008-02-07 09:03 51°18.739 2°36.038 8.9 282 6.4 103520 85
2008-02-07 09:04 51°18.742 2°35.993 9.4 286 6.5 103530 85
2008-02-07 09:05 51°18.79 2°35.959 7.8 43 6.4 103520 84
2008-02-07 09:06 51°18.857 2°36.051 5 40 6.4 103500 83
2008-02-07 09:07 51°19.004 2°36.062 4.6 75 6.4 103530 85
2008-02-07 09:08 51°19.196 2°35.993 4.2 84 6.5 103520 85
2008-02-07 09:09 51°19.393 2°35.934 3.4 84 6.5 103520 84
2008-02-07 09:10 51°19.587 2°35.882 4.4 81 6.5 103510 83
2008-02-07 09:11 51°19.782 2°35.827 4.2 77 6.5 103520 83
2008-02-07 09:12 51°19.978 2°35.758 4.3 81 6.5 103530 83
2008-02-07 09:13 51°20.173 2°35.691 5.8 284 6.6 103530 83
2008-02-07 09:14 51°20.365 2°35.606 4.6 287 6.5 103530 83
2008-02-07 09:15 51°20.543 2°35.442 9.7 281 6.6 103530 83
2008-02-07 09:16 51°20.705 2°35.226 11.4 285 6.6 103520 83
2008-02-07 09:17 51°20.862 2°35 9.1 282 6.6 103530 83
2008-02-07 09:18 51°20.995 2°34.737 12.4 283 6.7 103520 83
2008-02-07 09:19 51°21.109 2°34.437 12 281 6.7 103520 83
2008-02-07 09:20 51°21.175 2°34.099 11.1 283 6.7 103520 83
2008-02-07 09:21 51°21.22 2°33.758 14.5 282 6.7 103500 84
2008-02-07 09:22 51°21.28 2°33.417 14.3 277 6.7 103500 84
2008-02-07 09:23 51°21.347 2°33.088 10.7 281 6.7 103500 84
2008-02-07 09:24 51°21.445 2°32.795 12 283 6.7 103500 84
2008-02-07 09:25 51°21.592 2°32.567 4.6 279 6.7 103510 84
2008-02-07 09:26 51°21.783 2°32.526 3.6 80 6.7 103520 84
2008-02-07 09:27 51°21.974 2°32.548 4.1 74 6.7 103520 84
2008-02-07 09:28 51°22.171 2°32.554 5.4 75 6.7 103520 83
2008-02-07 09:29 51°22.368 2°32.554 3.9 81 6.7 103520 83
2008-02-07 09:30 51°22.564 2°32.552 4.5 80 6.7 103510 83
2008-02-07 09:31 51°22.761 2°32.547 4.2 77 6.7 103510 83
2008-02-07 09:32 51°22.957 2°32.543 2.9 82 6.7 103530 83
2008-02-07 09:33 51°23.153 2°32.538 3.1 74 6.7 103520 84
2008-02-07 09:34 51°23.348 2°32.534 4.9 81 6.8 103520 84
2008-02-07 09:35 51°23.545 2°32.539 2.2 80 6.8 103510 84
2008-02-07 09:36 51°23.738 2°32.57 2.9 79 6.9 103510 84
2008-02-07 09:37 51°23.933 2°32.599 3.7 81 7 103510 84
2008-02-07 09:38 51°24.127 2°32.634 2.8 74 7.1 103510 85
2008-02-07 09:39 51°24.323 2°32.664 2.7 54 7.1 103510 84
2008-02-07 09:40 51°24.514 2°32.714 2.3 41 7.2 103510 85
2008-02-07 09:41 51°24.71 2°32.765 2.6 78 7.4 103510 84
2008-02-07 09:42 51°24.9 2°32.818 2 81 7.4 103520 83
2008-02-07 09:43 51°25.093 2°32.876 1.7 78 7.5 103520 83
2008-02-07 09:44 51°25.287 2°32.94 2.2 76 7.5 103510 82
2008-02-07 09:45 51°25.482 2°32.997 4.5 80 7.5 103510 82
2008-02-07 09:46 51°25.674 2°33.065 1.6 39 7.5 103510 82
2008-02-07 09:47 51°25.847 2°33.191 3.8 75 7.4 103510 81
2008-02-07 09:48 51°26.027 2°33.287 2 83 7.4 103510 82
2008-02-07 09:49 51°26.212 2°33.4 1.9 80 7.4 103510 83
2008-02-07 09:50 51°26.404 2°33.476 2 72 7.4 103510 83
2008-02-07 09:51 51°26.597 2°33.5 3.3 79 7.4 103510 83
2008-02-07 09:52 51°26.782 2°33.579 2.7 33 7.4 103510 83
2008-02-07 09:53 51°26.909 2°33.808 4.7 37 7.4 103510 82
2008-02-07 09:54 51°27.066 2°33.991 3 56 7.4 103520 83
2008-02-07 09:55 51°27.236 2°34.139 2.2 51 7.3 103520 83
2008-02-07 09:56 51°27.416 2°34.257 1.4 57 7.3 103520 83
2008-02-07 09:57 51°27.597 2°34.372 2.6 54 7.4 103520 84
2008-02-07 09:58 51°27.782 2°34.477 2.9 52 7.5 103520 84
2008-02-07 09:59 51°27.968 2°34.577 3.4 55 7.7 103530 83
2008-02-07 10:00 51°28.158 2°34.647 4.9 58 7.9 103530 81
2008-02-07 10:01 51°28.354 2°34.68 4 56 7.7 103530 79
2008-02-07 10:02 51°28.552 2°34.71 4.3 50 7.7 103530 80
2008-02-07 10:03 51°28.745 2°34.757 4.2 50 7.7 103540 81
2008-02-07 10:04 51°28.941 2°34.798 2.7 56 7.6 103540 81
2008-02-07 10:05 51°29.133 2°34.86 1.2 59 7.6 103540 81
2008-02-07 10:06 51°29.327 2°34.909 3.9 55 7.6 103540 82
2008-02-07 10:07 51°29.522 2°34.941 3.3 55 7.6 103540 82
2008-02-07 10:08 51°29.715 2°34.98 4.7 57 7.5 103530 81
2008-02-07 10:09 51°29.905 2°34.991 2.4 310 7.5 103530 82
2008-02-07 10:10 51°30.095 2°34.989 3 314 7.5 103530 83
2008-02-07 10:11 51°30.291 2°35.013 2.9 52 7.6 103530 83
2008-02-07 10:12 51°30.483 2°35.033 3.3 56 7.6 103520 83
2008-02-07 10:13 51°30.679 2°35.037 4.2 304 7.6 103520 84
2008-02-07 10:14 51°30.872 2°35.038 5.7 54 7.6 103520 84
2008-02-07 10:15 51°31.058 2°35.062 3.4 52 7.6 103520 83
2008-02-07 10:16 51°31.256 2°35.053 4.7 52 7.5 103510 83
2008-02-07 10:17 51°31.452 2°35.063 3.9 305 7.5 103510 83
2008-02-07 10:18 51°31.647 2°35.073 4.5 57 7.6 103510 83
2008-02-07 10:19 51°31.84 2°35.065 3.8 59 7.6 103500 84
2008-02-07 10:20 51°32.031 2°35.076 6.5 57 7.7 103510 83
2008-02-07 10:21 51°32.227 2°35.099 3.8 55 7.6 103500 83
2008-02-07 10:22 51°32.425 2°35.134 2.5 312 7.6 103500 83
2008-02-07 10:23 51°32.621 2°35.174 2.9 51 7.7 103490 83
2008-02-07 10:24 51°32.806 2°35.262 3.4 59 7.7 103500 82
2008-02-07 10:25 51°32.973 2°35.32 3.2 56 7.6 103510 82
2008-02-07 10:26 51°33.132 2°35.366 4.8 51 7.7 103500 83
2008-02-07 10:27 51°33.236 2°35.384 6.7 56 7.7 103500 83
2008-02-07 10:28 51°33.287 2°35.38 8.2 58 7.6 103510 83
2008-02-07 10:29 51°33.304 2°35.371 6 307 7.6 103510 84
2008-02-07 10:30 51°33.309 2°35.364 8.9 305 7.7 103500 85
2008-02-07 10:31 51°33.311 2°35.36 10.5 307 7.6 103500 84
2008-02-07 10:32 51°33.314 2°35.362 6.9 303 7.6 103510 84
2008-02-07 10:33 51°33.315 2°35.366 12.4 304 7.7 103520 83
2008-02-07 10:34 51°33.317 2°35.373 12.4 305 7.7 103510 83
2008-02-07 10:35 51°33.323 2°35.366 9.7 303 7.7 103520 84
2008-02-07 10:36 51°33.383 2°35.268 5.5 51 7.8 103510 84
2008-02-07 10:37 51°33.495 2°35.337 3.5 57 7.9 103510 85
2008-02-07 10:38 51°33.671 2°35.463 3.4 51 8 103500 83
2008-02-07 10:39 51°33.848 2°35.605 3.2 59 8 103500 82
2008-02-07 10:40 51°34.033 2°35.722 1.9 56 8.1 103500 83
2008-02-07 10:41 51°34.212 2°35.871 2.5 57 8.1 103500 81
2008-02-07 10:42 51°34.396 2°35.996 2.4 57 8.2 103490 82
2008-02-07 10:43 51°34.58 2°36.136 3.2 50 8.2 103500 81
2008-02-07 10:44 51°34.757 2°36.293 3 56 8.3 103500 81
2008-02-07 10:45 51°34.936 2°36.447 1.9 52 8.2 103510 81
2008-02-07 10:46 51°35.115 2°36.589 1.8 52 8.3 103510 82
2008-02-07 10:47 51°35.306 2°36.686 3.5 51 8.4 103510 81
2008-02-07 10:48 51°35.497 2°36.774 2.9 56 8.2 103510 80
2008-02-07 10:49 51°35.69 2°36.864 3.6 57 8.2 103520 81
2008-02-07 10:50 51°35.885 2°36.91 4.1 55 8.2 103510 81
2008-02-07 10:51 51°36.082 2°37.009 2.2 51 8.1 103510 80
2008-02-07 10:52 51°36.272 2°37.112 4.1 52 8.1 103500 80
2008-02-07 10:53 51°36.468 2°37.166 2.2 56 8 103500 80
2008-02-07 10:54 51°36.666 2°37.237 3.7 58 8 103500 81
2008-02-07 10:55 51°36.858 2°37.344 2.9 56 8 103490 81
2008-02-07 10:56 51°37.05 2°37.46 2.8 57 8 103500 81
2008-02-07 10:57 51°37.244 2°37.567 2.3 57 8 103490 81
2008-02-07 10:58 51°37.437 2°37.638 2.6 56 8.1 103500 81
2008-02-07 10:59 51°37.635 2°37.749 3.1 55 8 103490 80
2008-02-07 11:00 51°37.775 2°37.988 6.1 31 8 103490 81
2008-02-07 11:01 51°37.885 2°38.272 6.5 27 8 103480 81
2008-02-07 11:02 51°37.978 2°38.574 6.4 23 8 103490 81
2008-02-07 11:03 51°38.118 2°38.793 4.7 58 7.9 103490 82
2008-02-07 11:04 51°38.318 2°38.823 4.4 309 8 103480 82
2008-02-07 11:05 51°38.521 2°38.79 5.9 304 8 103470 81
2008-02-07 11:06 51°38.721 2°38.731 4.1 305 8 103480 82
2008-02-07 11:07 51°38.907 2°38.708 4.2 58 8.1 103480 82
2008-02-07 11:08 51°39.061 2°38.703 4.9 58 8.1 103470 82
2008-02-07 11:09 51°39.2 2°38.675 5.9 61 8 103450 82
2008-02-07 11:10 51°39.29 2°38.663 8.6 57 8 103480 82
2008-02-07 11:11 51°39.36 2°38.676 7.5 56 8 103480 83
2008-02-07 11:12 51°39.402 2°38.703 11.2 56 7.9 103470 82
2008-02-07 11:13 51°39.416 2°38.717 11.7 314 7.8 103470 82
2008-02-07 11:14 51°39.429 2°38.726 8.4 302 7.9 103460 83
2008-02-07 11:15 51°39.442 2°38.734 11.2 306 7.9 103470 83
2008-02-07 11:16 51°39.489 2°38.671 11 310 8 103470 84
2008-02-07 11:17 51°39.607 2°38.489 12.5 309 8 103450 83
2008-02-07 11:18 51°39.739 2°38.258 10.5 306 8 103470 83
2008-02-07 11:19 51°39.873 2°38.008 10.5 301 8.1 103470 83
2008-02-07 11:20 51°40.009 2°37.776 13.5 305 8.1 103460 83
2008-02-07 11:21 51°40.147 2°37.541 12.8 304 8.1 103450 82
2008-02-07 11:22 51°40.275 2°37.287 10.7 307 8.1 103460 82
2008-02-07 11:23 51°40.42 2°37.061 11.1 303 8.1 103440 81
2008-02-07 11:24 51°40.571 2°36.844 12 305 8.1 103420 81
2008-02-07 11:25 51°40.715 2°36.631 14 307 8.2 103440 81
2008-02-07 11:26 51°40.875 2°36.428 14.2 304 8.2 103450 81
2008-02-07 11:27 51°41.021 2°36.215 14.8 302 8.2 103430 80
2008-02-07 11:28 51°41.168 2°35.999 11.7 305 8.2 103440 80
2008-02-07 11:29 51°41.297 2°35.764 14.8 309 8.2 103430 81
2008-02-07 11:30 51°41.442 2°35.532 11.5 304 8.1 103440 81
2008-02-07 11:31 51°41.577 2°35.295 12.6 304 8.1 103420 81
2008-02-07 11:32 51°41.714 2°35.067 10.9 306 8 103440 82
2008-02-07 11:33 51°41.84 2°34.818 13.6 308 8 103440 83
2008-02-07 11:34 51°41.974 2°34.613 11 303 8 103440 83
2008-02-07 11:35 51°42.079 2°34.443 12.8 307 8 103430 84
2008-02-07 11:36 51°42.154 2°34.367 10.1 306 7.9 103440 84
2008-02-07 11:37 51°42.191 2°34.328 9.4 301 7.9 103440 84
2008-02-07 11:38 51°42.205 2°34.357 6.5 304 7.8 103440 85
2008-02-07 11:39 51°42.217 2°34.396 10 305 7.8 103450 85
2008-02-07 11:40 51°42.231 2°34.425 7 309 7.7 103440 85
2008-02-07 11:41 51°42.251 2°34.449 6 303 7.7 103420 86
2008-02-07 11:42 51°42.348 2°34.311 8.5 304 7.7 103430 87
2008-02-07 11:43 51°42.488 2°34.078 11.9 307 7.8 103420 88
2008-02-07 11:44 51°42.638 2°33.852 9 305 7.8 103410 88
2008-02-07 11:45 51°42.79 2°33.63 8.3 305 7.8 103410 88
2008-02-07 11:46 51°42.943 2°33.408 7.2 304 7.9 103410 88
2008-02-07 11:47 51°43.111 2°33.212 9.4 304 7.9 103410 88
2008-02-07 11:48 51°43.276 2°33.011 8.6 309 8 103400 88
2008-02-07 11:49 51°43.455 2°32.834 10.3 304 8 103410 88
2008-02-07 11:50 51°43.618 2°32.629 10.7 307 8 103400 87
2008-02-07 11:51 51°43.79 2°32.438 13.3 309 8 103390 88
2008-02-07 11:52 51°43.949 2°32.225 10.5 304 8.1 103400 88
2008-02-07 11:53 51°44.133 2°32.059 8.7 304 8 103380 87
2008-02-07 11:54 51°44.305 2°31.869 12 306 8.1 103400 87
2008-02-07 11:55 51°44.477 2°31.681 8.5 303 8.1 103410 87
2008-02-07 11:56 51°44.654 2°31.497 14.2 303 8.2 103400 87
2008-02-07 11:57 51°44.836 2°31.324 10.8 304 8.2 103400 87
2008-02-07 11:58 51°45.024 2°31.165 12.6 308 8.3 103380 87
2008-02-07 11:59 51°45.198 2°30.976 11.2 309 8.3 103400 87
2008-02-07 12:00 51°45.389 2°30.826 8.2 306 8.4 103400 87
2008-02-07 12:01 51°45.588 2°30.694 9.1 304 8.4 103390 87
2008-02-07 12:02 51°45.778 2°30.54 6.2 304 8.4 103380 87
2008-02-07 12:03 51°45.967 2°30.401 9.1 305 8.5 103390 87
2008-02-07 12:04 51°46.133 2°30.288 9.3 305 8.4 103390 86
2008-02-07 12:05 51°46.284 2°30.151 11.1 308 8.5 103380 87
2008-02-07 12:06 51°46.434 2°30.019 10.6 305 8.5 103380 87
2008-02-07 12:07 51°46.515 2°29.962 9.4 308 8.5 103400 87
2008-02-07 12:08 51°46.536 2°30 6.9 303 8.5 103390 87
2008-02-07 12:09 51°46.555 2°30.042 8.1 304 8.4 103390 87
2008-02-07 12:10 51°46.576 2°30.076 7 308 8.5 103390 87
2008-02-07 12:11 51°46.601 2°30.109 10.2 308 8.4 103380 87
2008-02-07 12:12 51°46.626 2°30.138 7.3 308 8.5 103370 88
2008-02-07 12:13 51°46.656 2°30.15 7.1 304 8.5 103390 88
2008-02-07 12:14 51°46.728 2°30.153 4 42 8.5 103380 88
2008-02-07 12:15 51°46.762 2°30.293 9.7 9 8.5 103360 87
2008-02-07 12:16 51°46.716 2°30.558 12.2 3 8.4 103340 87
2008-02-07 12:17 51°46.637 2°30.881 12.1 4 8.4 103320 87
2008-02-07 12:18 51°46.551 2°31.201 13.1 359 8.3 103340 87
2008-02-07 12:19 51°46.449 2°31.504 12.5 359 8.3 103340 87
2008-02-07 12:20 51°46.349 2°31.811 14.1 352 8.3 103320 87
2008-02-07 12:21 51°46.228 2°32.09 12.5 359 8.2 103330 87
2008-02-07 12:22 51°46.121 2°32.385 14.2 356 8.2 103330 88
2008-02-07 12:23 51°46.012 2°32.68 12.3 356 8.2 103320 88
2008-02-07 12:24 51°45.909 2°32.982 13.4 357 8.2 103320 88
2008-02-07 12:25 51°45.799 2°33.274 12.9 354 8.2 103320 88
2008-02-07 12:26 51°45.698 2°33.578 12.3 360 8.2 103320 88
2008-02-07 12:27 51°45.6 2°33.884 12.2 352 8.2 103320 88
2008-02-07 12:28 51°45.488 2°34.174 14.8 355 8.2 103330 88
2008-02-07 12:29 51°45.373 2°34.457 14.3 355 8.1 103330 88
2008-02-07 12:30 51°45.251 2°34.734 13.2 355 8.1 103310 88
2008-02-07 12:31 51°45.13 2°35.012 14.5 355 8.1 103320 88
2008-02-07 12:32 51°45.011 2°35.294 13.6 356 8.1 103320 88
2008-02-07 12:33 51°44.901 2°35.592 14.8 356 8.1 103310 88
2008-02-07 12:34 51°44.784 2°35.88 13 354 8.2 103310 88
2008-02-07 12:35 51°44.671 2°36.167 13.4 352 8.2 103320 88
2008-02-07 12:36 51°44.565 2°36.471 14 357 8.1 103330 88
2008-02-07 12:37 51°44.45 2°36.761 12.6 355 8.1 103320 88
2008-02-07 12:38 51°44.345 2°37.063 13.9 355 8.1 103340 88
2008-02-07 12:39 51°44.225 2°37.345 13.3 356 8.1 103330 88
2008-02-07 12:40 51°44.104 2°37.627 13.5 358 8.1 103320 88
2008-02-07 12:41 51°44.012 2°37.943 12.2 356 8.1 103330 88
2008-02-07 12:42 51°43.918 2°38.257 12.6 354 8 103330 88
2008-02-07 12:43 51°43.811 2°38.557 14 358 8 103320 88
2008-02-07 12:44 51°43.709 2°38.862 14 -999 8 103320 88
2008-02-07 12:45 51°43.605 2°39.167 13.6 356 8 103330 88
2008-02-07 12:46 51°43.491 2°39.454 13.2 356 8 103340 88
2008-02-07 12:47 51°43.385 2°39.752 12.1 354 8.1 103330 88
2008-02-07 12:48 51°43.279 2°40.05 13.3 352 8.1 103340 88
2008-02-07 12:49 51°43.178 2°40.354 14.1 355 8 103350 88
2008-02-07 12:50 51°43.055 2°40.629 13.9 353 8 103340 88
2008-02-07 12:51 51°42.942 2°40.921 12.9 355 7.9 103330 88
2008-02-07 12:52 51°42.84 2°41.227 13.6 355 8 103360 88
2008-02-07 12:53 51°42.724 2°41.519 12.9 355 8 103350 88
2008-02-07 12:54 51°42.627 2°41.83 13.6 354 8 103340 88
2008-02-07 12:55 51°42.517 2°42.127 12.7 354 8 103340 88
2008-02-07 12:56 51°42.405 2°42.42 11.8 352 8 103340 88
2008-02-07 12:57 51°42.293 2°42.715 13.2 353 7.9 103320 88
2008-02-07 12:58 51°42.184 2°43.015 13.5 354 7.9 103320 88
2008-02-07 12:59 51°42.075 2°43.313 12.9 354 7.9 103320 88
2008-02-07 13:00 51°41.964 2°43.607 14.9 356 7.9 103330 87
2008-02-07 13:01 51°41.841 2°43.888 12.2 354 7.9 103310 87
2008-02-07 13:02 51°41.727 2°44.179 12.8 354 8 103330 87
2008-02-07 13:03 51°41.613 2°44.469 12.6 358 7.9 103320 86
2008-02-07 13:04 51°41.508 2°44.773 13.5 356 8 103310 86
2008-02-07 13:05 51°41.395 2°45.063 13.8 355 7.9 103310 86
2008-02-07 13:06 51°41.294 2°45.367 12.8 359 8 103310 86
2008-02-07 13:07 51°41.194 2°45.672 11.3 354 8 103330 85
2008-02-07 13:08 51°41.097 2°45.985 12 355 8 103340 86
2008-02-07 13:09 51°41 2°46.297 13.6 355 8 103300 86
2008-02-07 13:10 51°40.896 2°46.602 12.5 355 8 103320 86
2008-02-07 13:11 51°40.793 2°46.903 12.3 357 7.9 103320 86
2008-02-07 13:12 51°40.738 2°47.249 13.1 359 7.9 103320 87
2008-02-07 13:13 51°40.638 2°47.555 13.3 352 7.9 103320 87
2008-02-07 13:14 51°40.53 2°47.859 13.1 356 7.9 103320 86
2008-02-07 13:15 51°40.425 2°48.165 12.6 357 7.9 103320 86
2008-02-07 13:16 51°40.366 2°48.362 8.5 8 7.9 103350 86
2008-02-07 13:17 51°40.387 2°48.503 6 39 7.9 103360 85
2008-02-07 13:18 51°40.46 2°48.579 8.2 309 8 103370 86
2008-02-07 13:19 51°40.519 2°48.554 11.4 303 8 103360 86
2008-02-07 13:20 51°40.547 2°48.495 9.5 309 8 103370 85
2008-02-07 13:21 51°40.571 2°48.441 10.8 307 8.1 103350 85
2008-02-07 13:22 51°40.597 2°48.439 9.1 305 8.2 103340 85
2008-02-07 13:23 51°40.627 2°48.494 6.8 305 8.2 103370 85
2008-02-07 13:24 51°40.653 2°48.547 7.6 305 8.2 103370 85
2008-02-07 13:25 51°40.681 2°48.6 7 304 8.2 103350 85
2008-02-07 13:26 51°40.709 2°48.651 5.9 304 8.1 103360 84
2008-02-07 13:27 51°40.737 2°48.7 5.3 304 8.2 103360 84
2008-02-07 13:28 51°40.767 2°48.745 5.2 306 8.1 103360 84
2008-02-07 13:29 51°40.798 2°48.792 9.8 307 8.2 103380 84
2008-02-07 13:30 51°40.827 2°48.836 7.4 305 8.2 103360 84
2008-02-07 13:31 51°40.86 2°48.85 7.9 303 8.3 103360 84
2008-02-07 13:32 51°40.86 2°48.825 13.2 329 8.3 103350 83
2008-02-07 13:33 51°40.755 2°48.74 14.5 301 8.3 103340 82
2008-02-07 13:34 51°40.621 2°48.589 15 327 8.3 103340 82
2008-02-07 13:35 51°40.467 2°48.447 15.4 328 8.4 103320 82
2008-02-07 13:36 51°40.322 2°48.286 16.1 329 8.3 103320 81
2008-02-07 13:37 51°40.179 2°48.116 13.9 326 8.4 103330 81
2008-02-07 13:38 51°40.043 2°47.937 16 326 8.4 103330 80
2008-02-07 13:39 51°39.918 2°47.75 14.8 323 8.4 103340 81
2008-02-07 13:40 51°39.786 2°47.564 16.1 324 8.4 103330 81
2008-02-07 13:41 51°39.642 2°47.409 15.9 327 8.4 103340 80
2008-02-07 13:42 51°39.504 2°47.236 15.8 325 8.4 103340 80
2008-02-07 13:43 51°39.366 2°47.063 13.8 304 8.4 103330 81
2008-02-07 13:44 51°39.242 2°46.863 14.9 303 8.4 103330 81
2008-02-07 13:45 51°39.116 2°46.661 13.3 306 8.4 103330 82
2008-02-07 13:46 51°38.985 2°46.467 15.5 306 8.4 103330 82
2008-02-07 13:47 51°38.848 2°46.286 13.3 325 8.4 103320 82
2008-02-07 13:48 51°38.726 2°46.083 13.6 303 8.5 103310 83
2008-02-07 13:49 51°38.603 2°45.877 14.1 308 8.5 103320 83
2008-02-07 13:50 51°38.493 2°45.658 14.9 302 8.5 103330 83
2008-02-07 13:51 51°38.368 2°45.46 13.6 308 8.5 103330 83
2008-02-07 13:52 51°38.255 2°45.244 16.1 305 8.5 103320 83
2008-02-07 13:53 51°38.13 2°45.048 15.9 303 8.5 103320 83
2008-02-07 13:54 51°38 2°44.859 16 324 8.5 103330 84
2008-02-07 13:55 51°37.858 2°44.695 13.8 324 8.5 103330 83
2008-02-07 13:56 51°37.755 2°44.539 13.5 307 8.5 103340 84
2008-02-07 13:57 51°37.757 2°44.402 8.9 303 8.5 103330 84
2008-02-07 13:58 51°37.731 2°44.242 13.8 306 8.5 103340 84
2008-02-07 13:59 51°37.715 2°44.032 10.8 309 8.5 103330 84
2008-02-07 14:00 51°37.697 2°43.814 10.7 304 8.5 103340 85
2008-02-07 14:01 51°37.672 2°43.638 8.9 307 8.5 103340 85
2008-02-07 14:02 51°37.673 2°43.562 10.5 306 8.5 103350 85
2008-02-07 14:03 51°37.701 2°43.511 8.7 302 8.5 103350 85
2008-02-07 14:04 51°37.737 2°43.512 6.8 304 8.5 103360 86
2008-02-07 14:05 51°37.772 2°43.525 8.7 304 8.5 103360 86
2008-02-07 14:06 51°37.806 2°43.547 7.9 308 8.5 103350 85
2008-02-07 14:07 51°37.841 2°43.563 7.7 303 8.5 103370 85
2008-02-07 14:08 51°37.857 2°43.538 10.6 309 8.5 103360 86
2008-02-07 14:09 51°37.878 2°43.531 8.9 305 8.5 103340 86
2008-02-07 14:10 51°37.909 2°43.539 8.7 302 8.5 103340 86
2008-02-07 14:11 51°37.943 2°43.557 9.3 309 8.5 103340 86
2008-02-07 14:12 51°37.98 2°43.58 6.6 304 8.5 103350 86
2008-02-07 14:13 51°38.018 2°43.605 7.5 303 8.5 103350 86
2008-02-07 14:14 51°38.056 2°43.633 6.7 309 8.5 103360 86
2008-02-07 14:15 51°38.096 2°43.658 6.7 302 8.5 103350 86
2008-02-07 14:16 51°38.115 2°43.613 10.3 306 8.5 103350 86
2008-02-07 14:17 51°38.092 2°43.572 10.4 325 8.5 103350 85
2008-02-07 14:18 51°38.059 2°43.545 10.4 307 8.6 103350 86
2008-02-07 14:19 51°38.033 2°43.523 9.3 302 8.6 103350 85
2008-02-07 14:20 51°38.031 2°43.52 10 305 8.6 103340 85
2008-02-07 14:21 51°38.04 2°43.519 8.7 303 8.6 103340 84
2008-02-07 14:22 51°38.055 2°43.524 8.7 305 8.7 103350 84
2008-02-07 14:23 51°38.072 2°43.54 8.1 330 8.7 103350 84
2008-02-07 14:24 51°38.072 2°43.566 9.8 347 8.7 103350 85
2008-02-07 14:25 51°38.052 2°43.715 10.4 2 8.7 103360 84
2008-02-07 14:26 51°38.01 2°43.985 12.7 357 8.7 103310 85
2008-02-07 14:27 51°37.957 2°44.31 13.2 356 8.6 103300 85
2008-02-07 14:28 51°37.886 2°44.632 13.8 353 8.6 103320 85
2008-02-07 14:29 51°37.782 2°44.922 14.1 353 8.6 103300 85
2008-02-07 14:30 51°37.687 2°45.221 13.5 351 8.7 103300 85
2008-02-07 14:31 51°37.59 2°45.518 13.4 350 8.6 103320 85
2008-02-07 14:32 51°37.497 2°45.821 13.6 351 8.7 103300 85
2008-02-07 14:33 51°37.39 2°46.108 13.9 347 8.7 103310 85
2008-02-07 14:34 51°37.278 2°46.393 14.6 349 8.7 103310 85
2008-02-07 14:35 51°37.179 2°46.695 14.1 351 8.7 103330 85
2008-02-07 14:36 51°37.074 2°46.993 14.9 351 8.7 103320 85
2008-02-07 14:37 51°36.957 2°47.278 13.2 348 8.7 103320 85
2008-02-07 14:38 51°36.836 2°47.556 13.9 347 8.7 103310 85
2008-02-07 14:39 51°36.709 2°47.818 14.6 349 8.7 103320 85
2008-02-07 14:40 51°36.595 2°48.099 14.2 352 8.7 103330 85
2008-02-07 14:41 51°36.485 2°48.384 14.3 350 8.7 103320 84
2008-02-07 14:42 51°36.375 2°48.663 13.1 351 8.7 103320 84
2008-02-07 14:43 51°36.251 2°48.921 14.1 349 8.8 103320 84
2008-02-07 14:44 51°36.128 2°49.162 14.2 348 8.7 103330 84
2008-02-07 14:45 51°36.047 2°49.375 11.5 360 8.8 103330 84
2008-02-07 14:46 51°36.078 2°49.526 6.4 56 8.8 103360 84
2008-02-07 14:47 51°36.171 2°49.56 6.7 52 8.9 103380 85
2008-02-07 14:48 51°36.262 2°49.646 9.6 21 9 103370 84
2008-02-07 14:49 51°36.242 2°49.765 10.1 339 8.9 103340 82
2008-02-07 14:50 51°36.193 2°49.733 12.6 306 8.9 103350 82
2008-02-07 14:51 51°36.15 2°49.682 12.3 310 8.9 103360 82
2008-02-07 14:52 51°36.118 2°49.623 9.5 303 8.9 103360 83
2008-02-07 14:53 51°36.102 2°49.609 9.3 305 8.9 103370 83
2008-02-07 14:54 51°36.102 2°49.612 9.8 335 9 103370 83
2008-02-07 14:55 51°36.108 2°49.637 10 340 9 103380 82
2008-02-07 14:56 51°36.12 2°49.67 10.6 338 8.9 103370 82
2008-02-07 14:57 51°36.095 2°49.707 11.8 334 9 103350 82
2008-02-07 14:58 51°36.08 2°49.608 10.1 302 9 103350 82
2008-02-07 14:59 51°36.215 2°49.5 3.9 53 9 103370 82
2008-02-07 15:00 51°36.361 2°49.699 7.8 12 9.1 103370 81
2008-02-07 15:01 51°36.33 2°50.013 15.5 350 9.1 103350 81
2008-02-07 15:02 51°36.175 2°50.203 15.1 345 9.1 103340 81
2008-02-07 15:03 51°36.002 2°50.34 15 339 9.1 103360 81
2008-02-07 15:04 51°35.823 2°50.445 15.9 339 9.1 103350 81
2008-02-07 15:05 51°35.646 2°50.559 15.3 341 9.1 103350 81
2008-02-07 15:06 51°35.467 2°50.662 15.1 338 9.1 103350 81
2008-02-07 15:07 51°35.29 2°50.778 15.8 340 9 103350 81
2008-02-07 15:08 51°35.107 2°50.84 15.2 335 9.1 103360 81
2008-02-07 15:09 51°34.92 2°50.868 14.4 336 9.1 103360 81
2008-02-07 15:10 51°34.733 2°50.895 15.5 335 9.1 103360 81
2008-02-07 15:11 51°34.545 2°50.92 16.2 336 9.1 103370 81
2008-02-07 15:12 51°34.356 2°50.928 15.4 335 9.1 103360 81
2008-02-07 15:13 51°34.168 2°50.946 14.6 332 9.1 103350 81
2008-02-07 15:14 51°33.977 2°50.954 13.4 334 9.1 103360 82
2008-02-07 15:15 51°33.787 2°50.962 14.1 334 9.1 103370 82
2008-02-07 15:16 51°33.598 2°51.013 15.8 339 9.1 103370 82
2008-02-07 15:17 51°33.415 2°51.105 15.5 337 9 103370 83
2008-02-07 15:18 51°33.237 2°51.221 14.3 337 9 103380 83
2008-02-07 15:19 51°33.047 2°51.243 14.9 334 9 103380 83
2008-02-07 15:20 51°32.856 2°51.284 15.1 335 9 103370 83
2008-02-07 15:21 51°32.667 2°51.285 13.7 331 9 103370 84
2008-02-07 15:22 51°32.487 2°51.207 15.1 329 9 103380 83
2008-02-07 15:23 51°32.3 2°51.213 13.7 335 9 103390 83
2008-02-07 15:24 51°32.113 2°51.29 14.9 337 9 103380 84
2008-02-07 15:25 51°31.925 2°51.295 14.8 330 9 103370 84
2008-02-07 15:26 51°31.74 2°51.256 13.7 333 9 103390 84
2008-02-07 15:27 51°31.551 2°51.248 14.4 334 9 103380 84
2008-02-07 15:28 51°31.361 2°51.276 14.3 335 8.9 103380 84
2008-02-07 15:29 51°31.172 2°51.319 14.8 334 8.9 103390 84
2008-02-07 15:30 51°30.984 2°51.324 14.9 333 8.9 103390 84
2008-02-07 15:31 51°30.797 2°51.288 14.5 333 8.9 103380 84
2008-02-07 15:32 51°30.612 2°51.343 15.1 335 8.9 103370 84
2008-02-07 15:33 51°30.426 2°51.344 15.1 331 8.9 103400 84
2008-02-07 15:34 51°30.238 2°51.329 14.7 335 8.9 103380 84
2008-02-07 15:35 51°30.049 2°51.387 14.5 334 8.9 103390 84
2008-02-07 15:36 51°29.858 2°51.377 12.5 330 8.9 103400 84
2008-02-07 15:37 51°29.673 2°51.31 14.1 334 8.9 103380 84
2008-02-07 15:38 51°29.483 2°51.37 13.3 337 8.9 103380 84
2008-02-07 15:39 51°29.29 2°51.41 14.7 331 8.9 103390 85
2008-02-07 15:40 51°29.099 2°51.389 15.5 335 8.9 103380 84
2008-02-07 15:41 51°28.908 2°51.46 13.3 337 8.9 103400 85
2008-02-07 15:42 51°28.717 2°51.518 14.4 333 8.9 103380 84
2008-02-07 15:43 51°28.528 2°51.478 13.4 332 8.9 103390 84
2008-02-07 15:44 51°28.337 2°51.502 14.8 336 9 103400 84
2008-02-07 15:45 51°28.151 2°51.594 13.7 339 8.9 103410 84
2008-02-07 15:46 51°27.96 2°51.628 13.3 331 8.9 103410 84
2008-02-07 15:47 51°27.774 2°51.555 13.9 331 8.9 103390 84
2008-02-07 15:48 51°27.584 2°51.55 13.8 334 8.9 103410 84
2008-02-07 15:49 51°27.395 2°51.515 13.5 328 8.9 103390 84
2008-02-07 15:50 51°27.217 2°51.416 14.2 331 8.9 103390 84
2008-02-07 15:51 51°27.026 2°51.41 14.6 337 9 103390 84
2008-02-07 15:52 51°26.835 2°51.47 12.9 336 8.9 103400 84
2008-02-07 15:53 51°26.639 2°51.489 14 333 8.9 103400 84
2008-02-07 15:54 51°26.444 2°51.491 14.6 336 8.9 103410 84
2008-02-07 15:55 51°26.255 2°51.586 13.4 339 8.9 103400 84
2008-02-07 15:56 51°26.061 2°51.621 14.3 332 9 103410 84
2008-02-07 15:57 51°25.866 2°51.625 13.4 337 8.9 103420 84
2008-02-07 15:58 51°25.675 2°51.71 13.2 337 9 103410 84
2008-02-07 15:59 51°25.48 2°51.744 14 333 9 103420 84
2008-02-07 16:00 51°25.288 2°51.809 13.5 337 9 103410 84
2008-02-07 16:01 51°25.097 2°51.886 13.5 337 8.9 103420 84
2008-02-07 16:02 51°24.903 2°51.894 14.2 334 9 103420 83
2008-02-07 16:03 51°24.708 2°51.87 14.4 332 9 103410 83
2008-02-07 16:04 51°24.512 2°51.858 13.3 336 9 103420 83
2008-02-07 16:05 51°24.321 2°51.909 13.4 337 9 103420 83
2008-02-07 16:06 51°24.123 2°51.893 14.3 332 9 103420 82
2008-02-07 16:07 51°23.932 2°51.853 13.6 337 9 103430 82
2008-02-07 16:08 51°23.743 2°51.927 12.7 340 9 103430 82
2008-02-07 16:09 51°23.563 2°52.047 12.7 335 9 103430 82
2008-02-07 16:10 51°23.417 2°52.212 11.5 348 9 103420 83
2008-02-07 16:11 51°23.346 2°52.522 10.6 351 8.9 103430 84
2008-02-07 16:12 51°23.276 2°52.83 10.6 351 8.8 103440 85
2008-02-07 16:13 51°23.189 2°53.139 11.3 350 8.8 103440 85
2008-02-07 16:14 51°23.079 2°53.415 12 341 8.7 103440 86
2008-02-07 16:15 51°22.904 2°53.559 11.6 336 8.7 103440 87
2008-02-07 16:16 51°22.716 2°53.655 12.5 339 8.7 103440 87
2008-02-07 16:17 51°22.521 2°53.711 13.5 335 8.8 103440 86
2008-02-07 16:18 51°22.32 2°53.727 14.4 333 8.8 103440 86
2008-02-07 16:19 51°22.122 2°53.676 13 334 8.8 103440 86
2008-02-07 16:20 51°21.921 2°53.665 13.7 332 8.8 103440 86
2008-02-07 16:21 51°21.727 2°53.625 13.2 336 8.8 103440 86
2008-02-07 16:22 51°21.533 2°53.616 14 333 8.8 103440 86
2008-02-07 16:23 51°21.348 2°53.504 13.7 329 8.8 103440 86
2008-02-07 16:24 51°21.155 2°53.48 12.6 336 8.8 103450 85
2008-02-07 16:25 51°20.96 2°53.527 13 333 8.8 103440 86
2008-02-07 16:26 51°20.764 2°53.486 13.9 335 8.8 103440 86
2008-02-07 16:27 51°20.565 2°53.491 13 333 8.8 103440 86
2008-02-07 16:28 51°20.37 2°53.407 13.6 331 8.9 103440 86
2008-02-07 16:29 51°20.171 2°53.376 12.4 334 8.9 103450 86
2008-02-07 16:30 51°19.974 2°53.306 12.5 329 8.9 103450 86
2008-02-07 16:31 51°19.778 2°53.229 13.9 332 8.9 103450 85
2008-02-07 16:32 51°19.586 2°53.128 12.7 330 8.9 103450 85
2008-02-07 16:33 51°19.389 2°53.098 13.7 335 8.9 103440 85
2008-02-07 16:34 51°19.191 2°53.051 13.1 333 8.9 103440 85
2008-02-07 16:35 51°18.992 2°53.066 13.3 337 8.9 103450 85
2008-02-07 16:36 51°18.794 2°53.033 14.4 330 8.9 103460 85
2008-02-07 16:37 51°18.615 2°52.949 13.3 330 8.9 103460 84
2008-02-07 16:38 51°18.46 2°52.877 10.9 330 8.9 103460 84
2008-02-07 16:39 51°18.31 2°52.803 11.6 333 8.9 103460 84
2008-02-07 16:40 51°18.159 2°52.738 11.6 331 8.9 103460 84
2008-02-07 16:41 51°17.988 2°52.679 12.6 332 8.9 103470 84
2008-02-07 16:42 51°17.799 2°52.629 13.5 334 8.9 103460 84
2008-02-07 16:43 51°17.605 2°52.605 12.2 335 8.9 103460 84
2008-02-07 16:44 51°17.411 2°52.591 12.7 334 8.9 103460 84
2008-02-07 16:45 51°17.217 2°52.596 11.8 336 8.9 103470 84
2008-02-07 16:46 51°17.028 2°52.653 12.2 340 8.9 103460 84
2008-02-07 16:47 51°16.84 2°52.733 12.4 340 8.9 103470 84
2008-02-07 16:48 51°16.652 2°52.839 12.6 340 8.9 103470 84
2008-02-07 16:49 51°16.456 2°52.931 13 339 8.9 103470 84
2008-02-07 16:50 51°16.263 2°53.035 13.9 338 8.9 103470 84
2008-02-07 16:51 51°16.076 2°53.161 11.6 340 8.9 103470 84
2008-02-07 16:52 51°15.889 2°53.285 11.7 339 9 103480 83
2008-02-07 16:53 51°15.704 2°53.416 12.3 344 9 103480 82
2008-02-07 16:54 51°15.52 2°53.552 12 343 9 103480 82
2008-02-07 16:55 51°15.334 2°53.682 11.7 344 9 103480 82
2008-02-07 16:56 51°15.155 2°53.833 11.8 344 9 103480 82
2008-02-07 16:57 51°14.991 2°54.014 10.9 345 9 103490 82
2008-02-07 16:58 51°14.917 2°54.15 6.3 6 9 103480 81
2008-02-07 16:59 51°14.916 2°54.232 5.3 21 9 103500 81
2008-02-07 17:00 51°14.927 2°54.283 6.1 27 8.9 103500 81
2008-02-07 17:01 51°14.937 2°54.318 6.2 26 8.9 103510 81
2008-02-07 17:02 51°14.943 2°54.341 6.5 24 9 103500 81
2008-02-07 17:03 51°14.948 2°54.357 5.8 23 9 103500 81
2008-02-07 17:04 51°14.952 2°54.365 6 26 8.9 103500 81
2008-02-07 17:05 51°14.955 2°54.37 6 27 8.9 103500 81
2008-02-07 17:06 51°14.958 2°54.371 6.2 24 8.9 103500 81
2008-02-07 17:07 51°14.96 2°54.369 5.5 28 8.9 103500 81
2008-02-07 17:08 51°14.961 2°54.368 5.8 21 8.9 103510 82
2008-02-07 17:09 51°14.962 2°54.365 6.2 20 8.9 103510 82
2008-02-07 17:10 51°14.963 2°54.361 5.9 18 8.8 103510 82
2008-02-07 17:11 51°14.964 2°54.357 5.5 15 8.8 103510 82
2008-02-07 17:12 51°14.964 2°54.352 7.9 10 8.8 103520 83
2008-02-07 17:13 51°14.964 2°54.35 6.7 10 8.8 103510 83
2008-02-07 17:14 51°14.949 2°54.377 6.4 1 8.8 103520 83
2008-02-07 17:15 51°14.912 2°54.426 7.7 354 8.8 103510 83
2008-02-07 17:16 51°14.851 2°54.499 8.5 351 8.8 103510 83
2008-02-07 17:17 51°14.739 2°54.61 10.5 349 8.8 103500 83
2008-02-07 17:18 51°14.583 2°54.758 10.3 343 8.8 103500 82
2008-02-07 17:19 51°14.434 2°54.954 9 350 8.9 103500 82
2008-02-07 17:20 51°14.303 2°55.187 7 337 8.9 103520 81
2008-02-07 17:21 51°14.171 2°55.368 8.3 332 9 103510 80
2008-02-07 17:22 51°14.044 2°55.469 7.4 334 9 103530 80
2008-02-07 17:23 51°13.956 2°55.534 6.3 340 9 103530 80
2008-02-07 17:24 51°13.868 2°55.598 6.2 337 9 103530 80
2008-02-07 17:25 51°13.79 2°55.666 6.3 334 9 103530 80
2008-02-07 17:26 51°13.729 2°55.752 5.6 350 8.9 103540 80
2008-02-07 17:27 51°13.684 2°55.843 3.4 343 8.9 103530 80
2008-02-07 17:28 51°13.669 2°55.924 3.7 354 8.8 103540 81
2008-02-07 17:29 51°13.664 2°55.953 2.5 2 8.8 103540 81